Time;durP1;ratioP1;P1;durP2;ratioP2;P2;SDS_P1;SDS_P2;PMS_P1;PMS_P2;Temp;Humidity;BMP_temperature;BMP_pressure;BME280_temperature;BME280_humidity;BME280_pressure;Samples;Min_cycle;Max_cycle;Signal;HPM_P1;HPM_P2
2022/12/12 19:46:17;;;;;;;;;;;;;;;-3.00;74.66;97711.47;5877844;23;20857;-60
2022/12/12 19:48:42;;;;;;;;;;;;;;;-3.00;73.63;97714.03;4860460;29;19924;-64
2022/12/12 19:51:09;;;;;;;;;;;;;;;-3.15;72.23;97709.25;4860563;29;19920;-63
2022/12/12 19:53:35;;;;;;;;;;;;;;;-3.28;72.00;97716.38;4862999;29;19977;-63
2022/12/12 19:56:00;;;;;;;;;;;;;;;-3.28;73.07;97718.09;4862816;29;19912;-63
2022/12/12 19:58:26;;;;;;;;;;;;;;;-3.26;72.84;97719.75;4843404;29;19924;-63
2022/12/12 20:00:51;;;;;;;;;;;;;;;-3.26;73.41;97718.91;4842480;29;19927;-65
2022/12/12 20:03:16;;;;;;;;;;;;;;;-3.28;74.26;97715.53;4838929;29;19921;-65
2022/12/12 20:05:41;;;;;;;;;;;;;;;-3.25;73.69;97713.72;4843565;29;19955;-63
2022/12/12 20:08:07;;;;;;;;;;;;;;;-3.20;74.96;97718.75;4842914;29;20408;-63
2022/12/12 20:10:34;;;;;;;;;;;;;;;-3.18;74.05;97710.16;4851981;29;20015;-64
2022/12/12 20:12:59;;;;;;;;;;;;;;;-3.16;74.05;97718.69;4843789;29;19928;-64
2022/12/12 20:15:24;;;;;;;;;;;;;;;-3.14;75.20;97710.94;4843562;29;19935;-64
2022/12/12 20:17:49;;;;;;;;;;;;;;;-3.13;74.34;97716.06;4844227;29;19916;-63
2022/12/12 20:20:15;;;;;;;;;;;;;;;-3.14;74.09;97709.22;4842458;29;19939;-63
2022/12/12 20:22:40;;;;;;;;;;;;;;;-3.24;73.41;97715.41;4844194;29;19913;-63
2022/12/12 20:25:05;;;;;;;;;;;;;;;-3.29;73.45;97709.56;4841386;29;20407;-63
2022/12/12 20:27:31;;;;;;;;;;;;;;;-3.40;71.88;97712.34;4843555;29;20395;-67
2022/12/12 20:29:56;;;;;;;;;;;;;;;-3.46;72.22;97707.34;4843351;29;19912;-66
2022/12/12 20:32:21;;;;;;;;;;;;;;;-3.52;72.35;97709.19;4825566;29;19917;-64
2022/12/12 20:34:46;;;;;;;;;;;;;;;-3.55;73.61;97709.25;4830723;29;19936;-63
2022/12/12 20:37:12;;;;;;;;;;;;;;;-3.52;72.87;97716.88;4842891;29;20053;-63
2022/12/12 20:39:37;;;;;;;;;;;;;;;-3.50;73.46;97710.84;4843931;29;20002;-63
2022/12/12 20:42:03;;;;;;;;;;;;;;;-3.51;74.53;97714.28;4842798;29;19920;-63
2022/12/12 20:44:28;;;;;;;;;;;;;;;-3.61;72.93;97726.44;4843993;29;20285;-64
2022/12/12 20:46:54;;;;;;;;;;;;;;;-3.61;74.38;97721.31;4840269;29;19924;-66
2022/12/12 20:49:20;;;;;;;;;;;;;;;-3.60;74.24;97719.59;4841498;29;19995;-63
2022/12/12 20:51:46;;;;;;;;;;;;;;;-3.58;73.47;97718.69;4844815;29;19916;-63
2022/12/12 20:54:11;;;;;;;;;;;;;;;-3.58;74.65;97717.81;4843774;29;19916;-64
2022/12/12 20:56:37;;;;;;;;;;;;;;;-3.58;74.05;97721.25;4842413;29;19920;-64
2022/12/12 20:59:03;;;;;;;;;;;;;;;-3.60;74.10;97724.72;4841474;29;20380;-66
2022/12/12 21:01:29;;;;;;;;;;;;;;;-3.62;72.36;97727.31;4843489;29;20011;-63
2022/12/12 21:03:54;;;;;;;;;;;;;;;-3.72;73.23;97722.38;4857270;29;19920;-63
2022/12/12 21:06:23;;;;;;;;;;;;;;;-3.76;73.34;97718.19;4843203;29;19952;-65
2022/12/12 21:08:48;;;;;;;;;;;;;;;-3.77;73.92;97712.22;4855110;29;19916;-63
2022/12/12 21:11:16;;;;;;;;;;;;;;;-3.82;72.90;97717.47;4842450;29;20007;-64
2022/12/12 21:13:41;;;;;;;;;;;;;;;-3.76;74.75;97713.06;4841989;29;20011;-66
2022/12/12 21:16:10;;;;;;;;;;;;;;;-3.76;73.66;97713.91;4843587;29;19960;-64
2022/12/12 21:18:35;;;;;;;;;;;;;;;-3.71;75.43;97709.56;4840318;29;19912;-64
2022/12/12 21:21:00;;;;;;;;;;;;;;;-3.70;74.33;97718.09;4840368;29;19969;-64
2022/12/12 21:23:25;;;;;;;;;;;;;;;-3.69;74.23;97715.47;4846020;29;19916;-64
2022/12/12 21:25:51;;;;;;;;;;;;;;;-3.67;73.79;97708.63;4843255;29;19912;-63
2022/12/12 21:28:16;;;;;;;;;;;;;;;-3.68;73.91;97708.63;4838505;29;19947;-66
2022/12/12 21:30:41;;;;;;;;;;;;;;;-3.67;74.46;97712.91;4834641;29;19981;-63
2022/12/12 21:33:07;;;;;;;;;;;;;;;-3.67;75.36;97712.91;4834014;29;19920;-64
2022/12/12 21:35:32;;;;;;;;;;;;;;;-3.72;73.34;97710.41;4826290;29;19912;-63
2022/12/12 21:37:58;;;;;;;;;;;;;;;-3.89;71.23;97709.88;4847978;29;19916;-63
2022/12/12 21:40:23;;;;;;;;;;;;;;;-3.91;73.53;97709.09;4837331;29;19922;-65
2022/12/12 21:42:48;;;;;;;;;;;;;;;-3.90;72.84;97710.78;4826721;29;19917;-63
2022/12/12 21:45:14;;;;;;;;;;;;;;;-3.94;72.54;97711.72;4831873;29;19917;-62
2022/12/12 21:47:40;;;;;;;;;;;;;;;-4.00;73.17;97706.69;4830177;29;19916;-64
2022/12/12 21:50:05;;;;;;;;;;;;;;;-4.04;72.07;97713.59;4837051;29;20360;-63
2022/12/12 21:52:30;;;;;;;;;;;;;;;-3.99;73.50;97711.81;4831896;29;20436;-64
2022/12/12 21:54:55;;;;;;;;;;;;;;;-4.06;74.11;97711.06;4838389;29;19916;-63
2022/12/12 21:57:21;;;;;;;;;;;;;;;-3.99;73.91;97705.81;4841840;29;19919;-66
2022/12/12 21:59:47;;;;;;;;;;;;;;;-4.07;73.38;97704.22;4842686;29;19917;-67
2022/12/12 22:02:12;;;;;;;;;;;;;;;-4.13;72.18;97703.50;4838463;29;19917;-67
2022/12/12 22:04:38;;;;;;;;;;;;;;;-4.19;72.33;97716.44;4838341;29;19917;-67
2022/12/12 22:07:03;;;;;;;;;;;;;;;-4.28;74.32;97703.78;4840139;29;19916;-65
2022/12/12 22:09:28;;;;;;;;;;;;;;;-4.22;74.82;97709.66;4842340;29;19999;-67
2022/12/12 22:11:53;;;;;;;;;;;;;;;-4.25;72.84;97707.13;4842087;29;20003;-67
2022/12/12 22:14:19;;;;;;;;;;;;;;;-3.78;81.90;97710.56;4839946;29;19921;-68
2022/12/12 22:16:44;;;;;;;;;;;;;;;-3.13;88.60;97698.09;4840244;29;19916;-67
2022/12/12 22:19:10;;;;;;;;;;;;;;;-3.15;81.51;97699.00;4838748;29;20006;-70
2022/12/12 22:21:35;;;;;;;;;;;;;;;-3.26;76.27;97694.09;4840693;29;20019;-68
2022/12/12 22:24:01;;;;;;;;;;;;;;;-3.36;73.82;97693.44;4840917;29;20115;-69
2022/12/12 22:26:29;;;;;;;;;;;;;;;-3.55;72.42;97693.84;4840033;29;19964;-67
2022/12/12 22:28:56;;;;;;;;;;;;;;;-3.67;72.19;97693.25;4854978;29;19916;-66
2022/12/12 22:31:21;;;;;;;;;;;;;;;-3.74;72.65;97695.97;4840695;29;19923;-64
2022/12/12 22:33:47;;;;;;;;;;;;;;;-3.84;72.22;97688.44;4836755;29;20014;-65
2022/12/12 22:36:12;;;;;;;;;;;;;;;-3.95;72.44;97690.38;4839766;29;20376;-64
2022/12/12 22:38:37;;;;;;;;;;;;;;;-3.95;72.63;97698.06;4840443;29;19923;-65
2022/12/12 22:41:03;;;;;;;;;;;;;;;-3.97;72.55;97692.09;4840834;29;20293;-68
2022/12/12 22:43:29;;;;;;;;;;;;;;;-4.00;73.03;97684.47;4854313;29;19978;-65
2022/12/12 22:45:54;;;;;;;;;;;;;;;-4.00;74.14;97689.59;4839090;29;20377;-65
2022/12/12 22:48:19;;;;;;;;;;;;;;;-3.99;73.76;97685.31;4840630;29;20330;-68
2022/12/12 22:50:44;;;;;;;;;;;;;;;-4.00;73.84;97683.63;4841644;29;19917;-65
2022/12/12 22:53:11;;;;;;;;;;;;;;;-4.04;73.45;97682.84;4838075;29;20011;-69
2022/12/12 22:55:36;;;;;;;;;;;;;;;-4.10;74.29;97676.13;4840543;29;19917;-66
2022/12/12 22:58:01;;;;;;;;;;;;;;;-4.10;72.94;97677.84;4837864;29;20296;-66
2022/12/12 23:00:26;;;;;;;;;;;;;;;-4.14;72.86;97677.06;4839933;29;20370;-65
2022/12/12 23:02:52;;;;;;;;;;;;;;;-4.24;71.85;97675.53;4839827;29;19924;-66
2022/12/12 23:05:17;;;;;;;;;;;;;;;-4.33;70.71;97671.44;4838960;29;19920;-67
2022/12/12 23:07:42;;;;;;;;;;;;;;;-4.33;73.07;97670.59;4838789;29;19917;-67
2022/12/12 23:10:08;;;;;;;;;;;;;;;-4.36;72.71;97668.09;4841265;29;19919;-65
2022/12/12 23:12:33;;;;;;;;;;;;;;;-4.36;74.02;97674.03;4840005;29;19932;-69
2022/12/12 23:14:58;;;;;;;;;;;;;;;-4.36;74.26;97673.19;4846622;29;19964;-65
2022/12/12 23:17:23;;;;;;;;;;;;;;;-4.35;73.10;97672.31;4838749;29;19951;-65
2022/12/12 23:19:48;;;;;;;;;;;;;;;-4.29;73.97;97664.53;4841242;29;19912;-65
2022/12/12 23:22:14;;;;;;;;;;;;;;;-4.28;74.59;97668.78;4841486;29;19912;-65
2022/12/12 23:24:39;;;;;;;;;;;;;;;-4.28;73.92;97666.22;4854569;29;19923;-65
2022/12/12 23:27:04;;;;;;;;;;;;;;;-4.32;73.75;97662.03;4838655;29;19976;-65
2022/12/12 23:29:29;;;;;;;;;;;;;;;-4.32;73.45;97665.44;4838533;29;19916;-65
2022/12/12 23:31:54;;;;;;;;;;;;;;;-4.30;73.61;97670.53;4841292;29;19916;-65
2022/12/12 23:34:21;;;;;;;;;;;;;;;-4.38;72.79;97664.69;4840210;29;19965;-68
2022/12/12 23:36:47;;;;;;;;;;;;;;;-4.41;73.85;97659.63;4840233;29;19955;-66
2022/12/12 23:39:12;;;;;;;;;;;;;;;-4.39;73.64;97665.56;4854104;29;19956;-67
2022/12/12 23:41:38;;;;;;;;;;;;;;;-4.46;72.58;97664.00;4832185;29;20346;-66
2022/12/12 23:44:04;;;;;;;;;;;;;;;-4.58;72.24;97663.34;4838918;29;19926;-65
2022/12/12 23:46:32;;;;;;;;;;;;;;;-4.74;69.43;97664.47;4840913;29;19912;-65
2022/12/12 23:48:58;;;;;;;;;;;;;;;-4.84;69.71;97662.91;4839223;29;20407;-65
2022/12/12 23:51:24;;;;;;;;;;;;;;;-5.02;68.65;97656.38;4855262;29;19916;-65
2022/12/12 23:53:49;;;;;;;;;;;;;;;-4.95;72.73;97655.41;4838762;29;19917;-68
2022/12/12 23:56:14;;;;;;;;;;;;;;;-4.91;72.03;97659.59;4838933;29;20273;-65
2022/12/12 23:58:39;;;;;;;;;;;;;;;-4.86;73.77;97664.63;4839108;29;19917;-65
